createdAt,value
2018-04-18T00:01:24.670Z,28.97
2018-04-18T00:03:52.919Z,26.17
2018-04-18T00:06:21.159Z,28.20
2018-04-18T00:08:49.495Z,24.47
2018-04-18T00:11:17.814Z,31.07
2018-04-18T00:13:46.110Z,28.13
2018-04-18T00:16:14.371Z,24.63
2018-04-18T00:18:42.665Z,25.20
2018-04-18T00:21:10.917Z,23.97
2018-04-18T00:23:39.224Z,25.10
2018-04-18T00:26:07.541Z,33.40
2018-04-18T00:28:35.927Z,26.63
2018-04-18T00:31:04.198Z,22.77
2018-04-18T00:33:33.234Z,28.23
2018-04-18T00:36:01.514Z,27.40
2018-04-18T00:38:29.798Z,30.87
2018-04-18T00:40:58.058Z,25.80
2018-04-18T00:43:27.173Z,26.03
2018-04-18T00:45:55.457Z,28.47
2018-04-18T00:48:23.767Z,27.53
2018-04-18T00:50:52.785Z,27.43
2018-04-18T00:53:21.069Z,27.63
2018-04-18T00:55:49.337Z,27.23
2018-04-18T00:58:17.622Z,29.53
2018-04-18T01:00:45.989Z,25.70
2018-04-18T01:03:15.056Z,31.07
2018-04-18T01:05:43.341Z,30.37
2018-04-18T01:08:11.725Z,25.60
2018-04-18T01:10:40.759Z,27.27
2018-04-18T01:13:09.029Z,29.83
2018-04-18T01:15:37.342Z,30.57
2018-04-18T01:18:06.360Z,27.63
2018-04-18T01:20:34.756Z,34.90
2018-04-18T01:23:03.011Z,26.73
2018-04-18T01:25:31.312Z,27.80
2018-04-18T01:27:59.600Z,26.47
2018-04-18T01:30:27.891Z,26.17
2018-04-18T01:32:56.181Z,23.47
2018-04-18T01:35:24.503Z,27.50
2018-04-18T01:37:52.823Z,25.70
2018-04-18T01:40:21.102Z,31.20
2018-04-18T01:42:49.423Z,30.63
2018-04-18T01:45:17.680Z,30.37
2018-04-18T01:47:46.034Z,28.57
2018-04-18T01:50:14.330Z,30.20
2018-04-18T01:52:43.429Z,30.03
2018-04-18T01:55:12.445Z,31.63
2018-04-18T01:57:41.677Z,33.97
2018-04-18T02:00:09.958Z,28.57
2018-04-18T02:02:38.258Z,27.97
2018-04-18T02:05:07.273Z,26.97
2018-04-18T02:07:35.562Z,26.33
2018-04-18T02:10:04.251Z,28.53
2018-04-18T02:12:32.525Z,29.10
2018-04-18T02:15:00.817Z,32.90
2018-04-18T02:17:29.098Z,24.97
2018-04-18T02:19:57.367Z,25.17
2018-04-18T02:22:25.834Z,27.53
2018-04-18T02:24:54.117Z,25.33
2018-04-18T02:27:22.422Z,24.63
2018-04-18T02:29:50.709Z,27.57
2018-04-18T02:32:19.747Z,29.30
2018-04-18T02:34:48.040Z,25.43
2018-04-18T02:37:16.321Z,29.60
2018-04-18T02:39:44.585Z,28.77
2018-04-18T02:42:12.861Z,23.07
2018-04-18T02:44:41.140Z,23.97
2018-04-18T02:47:09.462Z,24.30
2018-04-18T02:49:37.705Z,25.53
2018-04-18T02:52:06.031Z,27.27
2018-04-18T02:54:34.348Z,24.80
2018-04-18T02:57:02.725Z,27.87
2018-04-18T02:59:31.232Z,25.40
2018-04-18T03:01:59.463Z,23.77
2018-04-18T03:04:27.751Z,25.33
2018-04-18T03:06:56.060Z,22.20
2018-04-18T03:09:25.091Z,25.33
2018-04-18T03:11:53.378Z,21.33
2018-04-18T03:14:22.509Z,23.93
2018-04-18T03:16:50.786Z,21.00
2018-04-18T03:19:19.229Z,28.20
2018-04-18T03:21:47.550Z,24.87
2018-04-18T03:24:15.824Z,24.30
2018-04-18T03:26:44.105Z,24.10
2018-04-18T03:29:12.367Z,23.17
2018-04-18T03:31:40.633Z,23.27
2018-04-18T03:34:08.903Z,28.80
2018-04-18T03:36:38.024Z,20.53
2018-04-18T03:39:07.062Z,25.80
2018-04-18T03:41:35.480Z,20.27
2018-04-18T03:44:03.752Z,22.37
2018-04-18T03:46:32.023Z,26.77
2018-04-18T03:49:00.417Z,23.23
2018-04-18T03:51:28.723Z,25.40
2018-04-18T03:53:56.985Z,22.10
2018-04-18T03:56:26.045Z,26.57
2018-04-18T04:01:28.921Z,28.83
2018-04-18T04:03:57.197Z,28.70
2018-04-18T04:06:25.451Z,28.70
2018-04-18T04:08:53.723Z,29.70
2018-04-18T04:11:22.001Z,24.83
2018-04-18T04:13:50.274Z,29.00
2018-04-18T04:16:30.314Z,27.30
2018-04-18T04:19:10.369Z,28.40
2018-04-18T04:21:50.524Z,22.83
2018-04-18T04:27:18.829Z,30.20
2018-04-18T04:29:47.194Z,22.27
2018-04-18T04:32:16.329Z,25.07
2018-04-18T04:34:44.708Z,27.97
2018-04-18T04:37:12.970Z,23.77
2018-04-18T04:39:41.233Z,25.70
2018-04-18T04:42:09.516Z,24.73
2018-04-18T04:44:37.821Z,21.97
2018-04-18T04:47:06.131Z,29.80
2018-04-18T04:49:35.253Z,27.83
2018-04-18T04:52:04.340Z,23.23
2018-04-18T04:54:32.603Z,20.47
2018-04-18T04:57:00.900Z,27.63
2018-04-18T04:59:29.163Z,23.07
2018-04-18T05:01:57.437Z,26.73
2018-04-18T05:04:25.722Z,21.73
2018-04-18T05:06:54.135Z,21.53
2018-04-18T05:09:24.043Z,28.60
2018-04-18T05:11:53.059Z,32.37
2018-04-18T05:14:21.328Z,25.83
2018-04-18T05:16:49.605Z,26.70
2018-04-18T05:19:17.866Z,20.93
2018-04-18T05:21:46.944Z,20.40
2018-04-18T05:24:15.211Z,20.60
2018-04-18T05:26:44.333Z,20.30
2018-04-18T05:29:12.605Z,18.37
2018-04-18T05:31:40.942Z,19.67
2018-04-18T05:34:09.970Z,18.67
2018-04-18T05:36:38.208Z,19.43
2018-04-18T05:39:06.539Z,18.47
2018-04-18T05:41:34.817Z,20.13
2018-04-18T05:44:03.095Z,18.40
2018-04-18T05:46:31.348Z,21.40
2018-04-18T05:48:59.594Z,18.93
2018-04-18T05:51:27.900Z,18.20
2018-04-18T05:53:56.146Z,24.53
2018-04-18T05:56:24.390Z,20.57
2018-04-18T05:58:52.666Z,23.07
2018-04-18T06:01:20.928Z,18.97
2018-04-18T06:03:49.235Z,21.27
2018-04-18T06:06:17.563Z,15.23
2018-04-18T06:08:45.812Z,17.80
2018-04-18T06:11:14.115Z,19.40
2018-04-18T06:13:42.348Z,14.60
2018-04-18T06:16:10.626Z,17.50
2018-04-18T06:18:38.913Z,16.93
2018-04-18T06:21:07.181Z,20.40
2018-04-18T06:23:36.257Z,22.10
2018-04-18T06:26:05.317Z,17.03
2018-04-18T06:28:33.606Z,19.77
2018-04-18T06:31:02.642Z,19.63
2018-04-18T06:33:30.991Z,18.07
2018-04-18T06:35:59.257Z,21.87
2018-04-18T06:38:27.522Z,23.53
2018-04-18T06:40:55.861Z,19.93
2018-04-18T06:43:24.142Z,18.10
2018-04-18T06:45:52.441Z,24.07
2018-04-18T06:48:20.663Z,17.37
2018-04-18T06:50:49.073Z,23.73
2018-04-18T06:53:18.107Z,23.57
2018-04-18T06:55:46.371Z,21.73
2018-04-18T06:58:14.625Z,21.10
2018-04-18T07:00:43.645Z,20.60
2018-04-18T07:03:12.754Z,17.30
2018-04-18T07:05:41.026Z,18.37
2018-04-18T07:08:10.285Z,23.40
2018-04-18T07:10:39.325Z,18.83
2018-04-18T07:13:07.582Z,22.40
2018-04-18T07:15:35.846Z,19.03
2018-04-18T07:18:04.130Z,20.20
2018-04-18T07:20:32.464Z,16.90
2018-04-18T07:23:00.723Z,21.03
2018-04-18T07:25:29.003Z,22.80
2018-04-18T07:27:57.302Z,24.40
2018-04-18T07:30:26.351Z,23.03
2018-04-18T07:38:45.177Z,20.27
2018-04-18T07:41:13.469Z,24.07
2018-04-18T07:43:41.770Z,19.40
2018-04-18T07:46:10.835Z,24.00
2018-04-18T07:48:39.186Z,27.40
2018-04-18T07:51:07.486Z,28.67
2018-04-18T07:53:35.790Z,37.37
2018-04-18T07:56:04.847Z,36.33
2018-04-18T07:58:33.143Z,32.60
2018-04-18T08:01:01.455Z,34.63
2018-04-18T08:03:30.540Z,40.30
2018-04-18T08:05:59.597Z,29.53
2018-04-18T08:08:27.890Z,39.70
2018-04-18T08:10:56.183Z,32.83
2018-04-18T08:13:24.567Z,32.70
2018-04-18T08:15:53.734Z,27.20
2018-04-18T08:18:22.054Z,33.80
2018-04-18T08:20:50.359Z,27.37
2018-04-18T08:23:18.671Z,36.40
2018-04-18T08:25:46.945Z,39.30
2018-04-18T08:28:16.099Z,28.03
2018-04-18T08:30:44.384Z,31.50
2018-04-18T08:33:12.681Z,28.30
2018-04-18T08:35:41.085Z,23.90
2018-04-18T08:38:09.368Z,25.30
2018-04-18T08:40:38.435Z,26.90
2018-04-18T08:43:06.721Z,25.40
2018-04-18T08:45:35.787Z,20.63
2018-04-18T08:48:04.881Z,19.00
2018-04-18T08:50:33.217Z,18.77
2018-04-18T08:53:01.515Z,24.50
2018-04-18T08:55:29.824Z,18.03
2018-04-18T08:57:58.117Z,19.60
2018-04-18T09:00:26.437Z,16.77
2018-04-18T09:02:54.708Z,18.33
2018-04-18T09:05:22.979Z,18.10
2018-04-18T09:07:51.271Z,18.17
2018-04-18T09:10:19.665Z,17.30
2018-04-18T09:12:47.941Z,16.77
2018-04-18T09:15:16.217Z,22.67
2018-04-18T09:17:45.553Z,21.77
2018-04-18T09:20:14.629Z,19.23
2018-04-18T09:22:42.926Z,16.93
2018-04-18T09:25:11.957Z,13.50
2018-04-18T09:27:40.285Z,18.33
2018-04-18T09:30:08.550Z,18.63
2018-04-18T09:32:36.845Z,20.07
2018-04-18T09:35:05.886Z,13.60
2018-04-18T09:37:34.209Z,18.77
2018-04-18T09:40:02.486Z,16.97
2018-04-18T09:42:31.579Z,18.03
2018-04-18T09:44:59.854Z,17.87
2018-04-18T09:47:28.157Z,17.67
2018-04-18T09:49:56.473Z,15.63
2018-04-18T09:52:24.763Z,19.10
2018-04-18T09:54:53.050Z,21.47
2018-04-18T09:57:21.350Z,16.93
2018-04-18T09:59:50.414Z,18.67
2018-04-18T10:02:18.706Z,20.33
2018-04-18T10:04:47.002Z,19.87
2018-04-18T10:07:15.306Z,20.37
2018-04-18T10:09:43.626Z,18.90
2018-04-18T10:12:11.903Z,20.87
2018-04-18T10:14:40.215Z,23.40
2018-04-18T10:17:08.498Z,14.90
2018-04-18T10:19:36.879Z,19.23
2018-04-18T10:22:05.159Z,21.37
2018-04-18T10:24:33.465Z,17.53
2018-04-18T10:27:01.735Z,19.67
2018-04-18T10:29:30.147Z,19.13
2018-04-18T10:31:59.271Z,23.70
2018-04-18T10:34:27.562Z,20.20
2018-04-18T10:36:55.855Z,23.67
2018-04-18T10:39:24.141Z,22.57
2018-04-18T10:41:52.487Z,23.77
2018-04-18T10:44:20.797Z,21.67
2018-04-18T10:46:49.160Z,18.30
2018-04-18T10:49:17.437Z,26.33
2018-04-18T10:51:45.744Z,22.97
2018-04-18T10:54:14.007Z,23.10
2018-04-18T10:56:42.313Z,18.90
2018-04-18T10:59:11.361Z,21.20
2018-04-18T11:01:40.609Z,23.70
2018-04-18T11:04:08.893Z,25.03
2018-04-18T11:06:37.202Z,21.80
2018-04-18T11:09:05.470Z,29.47
2018-04-18T11:11:33.869Z,22.83
2018-04-18T11:14:02.166Z,24.17
2018-04-18T11:16:30.491Z,25.63
2018-04-18T11:18:58.786Z,24.43
2018-04-18T11:21:27.066Z,23.17
2018-04-18T11:23:55.359Z,25.60
2018-04-18T11:26:23.634Z,24.90
2018-04-18T11:28:51.942Z,21.00
2018-04-18T11:31:21.010Z,19.07
2018-04-18T11:33:49.301Z,28.70
2018-04-18T11:36:18.495Z,19.77
2018-04-18T11:38:47.583Z,22.17
2018-04-18T11:41:15.904Z,21.90
2018-04-18T11:43:44.209Z,20.83
2018-04-18T11:46:12.520Z,18.17
2018-04-18T11:48:40.832Z,24.20
2018-04-18T11:51:09.183Z,22.63
2018-04-18T11:53:37.460Z,22.53
2018-04-18T11:56:05.736Z,21.63
2018-04-18T11:58:34.052Z,28.53
2018-04-18T12:01:02.356Z,25.80
2018-04-18T12:03:30.660Z,21.40
2018-04-18T12:05:58.964Z,24.67
2018-04-18T12:08:27.327Z,27.43
2018-04-18T12:10:56.367Z,28.90
2018-04-18T12:13:24.645Z,22.73
2018-04-18T12:15:52.998Z,24.90
2018-04-18T12:18:21.296Z,24.87
2018-04-18T12:20:49.583Z,21.93
2018-04-18T12:23:18.673Z,26.27
2018-04-18T12:25:46.977Z,25.27
2018-04-18T12:28:16.040Z,26.47
2018-04-18T12:30:45.868Z,22.00
2018-04-18T12:33:14.951Z,22.67
2018-04-18T12:35:43.297Z,30.80
2018-04-18T12:38:11.629Z,27.33
2018-04-18T12:40:40.693Z,20.23
2018-04-18T12:43:09.001Z,22.83
2018-04-18T12:45:37.477Z,22.10
2018-04-18T12:48:06.591Z,22.43
2018-04-18T12:50:34.911Z,21.93
2018-04-18T12:53:03.195Z,22.20
2018-04-18T12:55:31.492Z,24.43
2018-04-18T12:58:00.544Z,26.57
2018-04-18T13:00:28.886Z,21.93
2018-04-18T13:02:57.156Z,26.03
2018-04-18T13:05:25.479Z,26.07
2018-04-18T13:07:53.779Z,24.10
2018-04-18T13:10:22.092Z,25.03
2018-04-18T13:12:50.381Z,25.63
2018-04-18T13:15:18.820Z,28.40
2018-04-18T13:17:47.119Z,27.37
2018-04-18T13:20:15.480Z,26.73
2018-04-18T13:22:44.581Z,23.43
2018-04-18T13:25:13.677Z,28.53
2018-04-18T13:27:41.940Z,22.77
2018-04-18T13:30:11.001Z,28.77
2018-04-18T13:32:39.309Z,22.80
2018-04-18T13:35:08.357Z,26.73
2018-04-18T13:37:36.662Z,29.27
2018-04-18T13:40:04.956Z,30.37
2018-04-18T13:42:34.030Z,29.20
2018-04-18T13:45:02.315Z,27.03
2018-04-18T13:47:31.395Z,23.97
2018-04-18T13:49:59.679Z,28.47
2018-04-18T13:52:28.110Z,22.77
2018-04-18T13:54:56.797Z,27.87
2018-04-18T13:57:25.182Z,28.27
2018-04-18T13:59:53.466Z,20.03
2018-04-18T14:02:21.763Z,22.30
2018-04-18T14:04:51.552Z,22.43
2018-04-18T14:07:20.106Z,24.57
2018-04-18T14:09:49.137Z,21.63
2018-04-18T14:12:18.258Z,24.93
2018-04-18T14:14:46.609Z,23.80
2018-04-18T14:17:16.178Z,25.97
2018-04-18T14:19:44.515Z,22.27
2018-04-18T14:22:13.720Z,18.77
2018-04-18T14:24:42.795Z,26.00
2018-04-18T14:27:11.808Z,20.67
2018-04-18T14:29:41.091Z,25.67
2018-04-18T14:32:09.408Z,20.33
2018-04-18T14:34:37.681Z,23.77
2018-04-18T14:37:06.813Z,30.27
2018-04-18T14:39:35.138Z,27.90
2018-04-18T14:42:03.428Z,30.37
2018-04-18T14:44:31.766Z,27.07
2018-04-18T14:47:00.132Z,28.10
2018-04-18T14:49:28.433Z,30.80
2018-04-18T14:51:57.650Z,24.00
2018-04-18T14:54:25.965Z,26.77
2018-04-18T14:56:55.017Z,26.93
2018-04-18T14:59:24.071Z,25.03
2018-04-18T15:01:53.693Z,17.57
2018-04-18T15:04:22.037Z,17.23
2018-04-18T15:06:50.413Z,15.13
2018-04-18T15:09:18.732Z,18.80
2018-04-18T15:11:47.833Z,18.63
2018-04-18T15:14:16.902Z,18.53
2018-04-18T15:16:45.217Z,15.50
2018-04-18T15:19:13.510Z,19.60
2018-04-18T15:21:41.852Z,22.00
2018-04-18T15:24:11.235Z,26.97
2018-04-18T15:26:39.873Z,21.63
2018-04-18T15:29:08.166Z,20.47
2018-04-18T15:31:36.494Z,14.03
2018-04-18T15:34:05.682Z,11.93
2018-04-18T15:36:34.459Z,7.40
2018-04-18T15:39:02.756Z,10.87
2018-04-18T15:41:32.591Z,12.20
2018-04-18T15:44:00.918Z,15.23
2018-04-18T15:46:30.280Z,8.10
2018-04-18T15:48:58.857Z,13.77
2018-04-18T15:51:27.160Z,10.77
2018-04-18T15:53:55.479Z,13.17
2018-04-18T15:56:31.917Z,11.40
2018-04-18T15:59:01.110Z,10.33
2018-04-18T16:01:29.456Z,13.27
2018-04-18T16:03:57.787Z,12.13
2018-04-18T16:06:26.100Z,11.23
2018-04-18T16:08:54.412Z,9.03
2018-04-18T16:11:22.692Z,11.50
2018-04-18T16:13:51.013Z,11.03
2018-04-18T16:16:20.051Z,8.77
2018-04-18T16:18:48.343Z,15.07
2018-04-18T16:21:17.497Z,12.67
2018-04-18T16:23:45.888Z,13.07
2018-04-18T16:26:14.165Z,8.50
2018-04-18T16:28:42.462Z,11.57
2018-04-18T16:31:10.740Z,12.10
2018-04-18T16:33:39.067Z,8.30
2018-04-18T16:36:08.134Z,15.07
2018-04-18T16:38:36.412Z,11.43
2018-04-18T16:41:04.758Z,8.97
2018-04-18T16:43:33.858Z,8.13
2018-04-18T16:46:02.241Z,11.30
2018-04-18T16:48:30.549Z,10.13
2018-04-18T16:50:59.701Z,9.70
2018-04-18T16:53:28.046Z,8.10
2018-04-18T17:08:51.399Z,7.37
2018-04-18T17:24:19.711Z,8.80
2018-04-18T17:26:48.794Z,8.97
2018-04-18T17:29:17.079Z,6.93
2018-04-18T17:31:45.395Z,8.70
2018-04-18T17:34:13.686Z,9.17
2018-04-18T17:36:42.008Z,9.27
2018-04-18T17:39:11.168Z,10.30
2018-04-18T17:41:39.480Z,10.00
2018-04-18T17:44:08.583Z,11.60
2018-04-18T17:46:37.656Z,9.77
2018-04-18T17:49:06.035Z,10.13
2018-04-18T17:51:34.307Z,10.80
2018-04-18T17:54:02.615Z,8.87
2018-04-18T17:56:31.788Z,9.00
2018-04-18T17:59:00.135Z,10.03
2018-04-18T18:01:28.427Z,10.67
2018-04-18T18:03:56.711Z,8.70
2018-04-18T18:06:25.088Z,8.20
2018-04-18T18:08:54.108Z,7.80
2018-04-18T18:11:23.181Z,8.73
2018-04-18T18:13:51.514Z,10.03
2018-04-18T18:16:19.841Z,9.37
2018-04-18T18:18:48.201Z,8.07
2018-04-18T18:21:17.093Z,13.27
2018-04-18T18:23:45.424Z,9.10
2018-04-18T18:26:13.749Z,9.77
2018-04-18T18:28:42.086Z,10.53
2018-04-18T18:31:10.503Z,12.90
2018-04-18T18:33:39.024Z,10.33
2018-04-18T18:36:07.340Z,13.87
2018-04-18T18:38:35.684Z,10.97
2018-04-18T18:41:03.980Z,9.97
2018-04-18T18:43:32.339Z,10.90
2018-04-18T18:46:01.437Z,11.23
2018-04-18T18:48:30.593Z,8.67
2018-04-18T18:50:58.904Z,10.80
2018-04-18T18:53:27.961Z,11.00
2018-04-18T18:55:57.062Z,9.47
2018-04-18T18:58:26.204Z,11.27
2018-04-18T19:00:54.522Z,9.37
2018-04-18T19:03:22.818Z,12.50
2018-04-18T19:05:51.904Z,14.50
2018-04-18T19:08:21.026Z,8.83
2018-04-18T19:10:49.361Z,10.87
2018-04-18T19:13:17.650Z,11.50
2018-04-18T19:15:46.719Z,13.30
2018-04-18T19:18:15.054Z,14.03
2018-04-18T19:20:43.348Z,13.90
2018-04-18T19:23:11.676Z,15.53
2018-04-18T19:25:40.764Z,17.40
2018-04-18T19:28:09.956Z,15.80
2018-04-18T19:30:39.023Z,15.17
2018-04-18T19:33:07.331Z,14.10
2018-04-18T19:35:36.400Z,17.93
2018-04-18T19:38:04.699Z,14.10
2018-04-18T19:40:33.743Z,14.10
2018-04-18T19:43:02.077Z,17.83
2018-04-18T19:45:31.130Z,17.27
2018-04-18T19:47:59.468Z,19.37
2018-04-18T19:50:27.761Z,20.77
2018-04-18T19:52:56.060Z,22.43
2018-04-18T19:55:24.378Z,18.23
2018-04-18T19:57:52.689Z,18.83
2018-04-18T20:00:20.984Z,18.77
2018-04-18T20:02:49.284Z,14.53
2018-04-18T20:05:17.601Z,16.10
2018-04-18T20:07:45.938Z,20.03
2018-04-18T20:10:14.213Z,16.17
2018-04-18T20:12:42.504Z,17.97
2018-04-18T20:15:10.904Z,17.67
2018-04-18T20:17:39.200Z,18.10
2018-04-18T20:20:07.551Z,16.63
2018-04-18T20:22:35.881Z,19.50
2018-04-18T20:25:04.282Z,22.37
2018-04-18T20:27:32.629Z,16.27
2018-04-18T20:30:00.933Z,20.13
2018-04-18T20:32:29.245Z,22.40
2018-04-18T20:34:57.565Z,17.50
2018-04-18T20:37:25.877Z,17.50
2018-04-18T20:39:54.985Z,18.70
2018-04-18T20:42:24.109Z,20.10
2018-04-18T20:44:52.474Z,21.93
2018-04-18T20:47:21.459Z,20.67
2018-04-18T20:49:49.807Z,19.27
2018-04-18T20:52:18.117Z,23.00
2018-04-18T20:54:46.422Z,22.50
2018-04-18T20:57:14.979Z,17.87
2018-04-18T20:59:44.235Z,21.47
2018-04-18T21:02:13.327Z,23.43
2018-04-18T21:04:42.410Z,22.73
2018-04-18T21:07:11.306Z,20.50
2018-04-18T21:09:40.417Z,27.40
2018-04-18T21:12:09.514Z,23.10
2018-04-18T21:14:38.785Z,21.90
2018-04-18T21:17:07.995Z,21.13
2018-04-18T21:19:36.292Z,22.40
2018-04-18T21:22:04.611Z,26.13
2018-04-18T21:24:32.888Z,23.50
2018-04-18T21:27:01.181Z,18.80
2018-04-18T21:29:29.479Z,25.93
2018-04-18T21:31:58.576Z,23.73
2018-04-18T21:34:26.852Z,25.33
2018-04-18T21:36:55.136Z,25.37
2018-04-18T21:39:23.448Z,28.23
2018-04-18T21:41:51.732Z,23.27
2018-04-18T21:44:20.884Z,23.87
2018-04-18T21:46:49.941Z,24.17
2018-04-18T21:49:19.053Z,18.27
2018-04-18T21:51:48.113Z,23.53
2018-04-18T21:54:16.481Z,22.63
2018-04-18T21:56:44.815Z,25.03
2018-04-18T21:59:13.889Z,25.53
2018-04-18T22:01:42.549Z,23.13
2018-04-18T22:04:11.842Z,26.43
2018-04-18T22:06:40.168Z,20.20
2018-04-18T22:09:08.484Z,25.10
2018-04-18T22:11:36.796Z,25.87
2018-04-18T22:14:05.101Z,24.40
2018-04-18T22:16:33.389Z,25.43
2018-04-18T22:19:01.722Z,26.40
2018-04-18T22:21:30.008Z,26.03
2018-04-18T22:23:58.322Z,21.30
2018-04-18T22:26:27.364Z,24.13
2018-04-18T22:28:55.687Z,24.90
2018-04-18T22:31:24.720Z,24.37
2018-04-18T22:33:53.045Z,24.50
2018-04-18T22:36:21.438Z,21.50
2018-04-18T22:38:49.743Z,29.43
2018-04-18T22:41:18.028Z,20.63
2018-04-18T22:43:48.104Z,21.37
2018-04-18T22:46:16.891Z,27.13
2018-04-18T22:48:45.172Z,27.20
2018-04-18T22:51:13.456Z,26.53
2018-04-18T22:53:41.745Z,24.00
2018-04-18T22:56:10.281Z,25.33
2018-04-18T22:58:40.061Z,26.73
2018-04-18T23:01:08.388Z,26.63
2018-04-18T23:03:36.693Z,27.43
2018-04-18T23:06:05.015Z,28.33
2018-04-18T23:08:33.398Z,25.37
2018-04-18T23:11:01.746Z,23.67
2018-04-18T23:13:30.823Z,22.37
2018-04-18T23:15:59.119Z,24.67
2018-04-18T23:18:27.426Z,25.57
2018-04-18T23:20:55.820Z,27.70
2018-04-18T23:23:24.122Z,26.87
2018-04-18T23:25:52.428Z,25.20
2018-04-18T23:28:20.955Z,23.50
2018-04-18T23:30:49.310Z,25.87
2018-04-18T23:33:18.431Z,21.03
2018-04-18T23:35:46.822Z,26.23
2018-04-18T23:38:15.123Z,22.83
2018-04-18T23:40:43.494Z,26.00
2018-04-18T23:43:11.815Z,25.23
2018-04-18T23:45:40.855Z,24.43
2018-04-18T23:48:09.159Z,22.97
2018-04-18T23:50:37.468Z,29.70
2018-04-18T23:53:05.772Z,27.93
2018-04-18T23:55:34.057Z,20.47
2018-04-18T23:58:02.361Z,24.60
